Charlotte (CLT/KCLT)

Map

Destinations

Information

Location
Charlotte, NC
Local Time
18:26 / 6:26 pm
GMT Time
22:26 / 10:26 pm
Gates
Unassigned
No FAA reported delays
METAR KCLT 272152Z 18011KT 10SM FEW032 SCT110 BKN250 25/14 A2997 RMK AO2 SLP140 CB DSNT SE TCU DSNT NW T02500139
TAF KCLT 272112Z 2721/2818 21009KT P6SM VCSH FEW026 SCT100 BKN250 FM280600 19006KT P6SM VCSH BKN025 FM280900 19008KT 5SM BR BKN007 FM281400 22008KT P6SM BKN015
  • No charts available